createdAt,value
2022-10-19T00:00:28.881Z,103038.91
2022-10-19T00:02:55.270Z,103032.63
2022-10-19T00:05:21.629Z,103034.84
2022-10-19T00:07:48.029Z,103037.66
2022-10-19T00:10:14.391Z,103037.34
2022-10-19T00:12:40.836Z,103033.56
2022-10-19T00:15:07.715Z,103039.28
2022-10-19T00:17:34.927Z,103020.75
2022-10-19T00:20:01.637Z,103020.84
2022-10-19T00:22:28.017Z,103025.94
2022-10-19T00:24:56.703Z,103036.06
2022-10-19T00:27:23.105Z,103017.63
2022-10-19T00:29:49.487Z,103003.09
2022-10-19T00:32:15.868Z,103016.13
2022-10-19T00:34:42.268Z,103008.38
2022-10-19T00:37:08.623Z,103019.16
2022-10-19T00:39:35.006Z,103016.78
2022-10-19T00:42:01.364Z,103014.94
2022-10-19T00:44:30.792Z,103024.16
2022-10-19T00:47:02.000Z,103018.44
2022-10-19T00:49:30.507Z,103016.56
2022-10-19T00:52:04.524Z,103030.44
2022-10-19T00:54:32.776Z,103020.09
2022-10-19T00:56:59.678Z,103008.91
2022-10-19T00:59:27.378Z,103012.06
2022-10-19T01:01:54.325Z,103007.34
2022-10-19T01:04:21.896Z,103028.78
2022-10-19T01:06:48.302Z,103008.38
2022-10-19T01:09:15.566Z,103017.31
2022-10-19T01:12:01.843Z,103022.03
2022-10-19T01:14:46.917Z,103019.53
2022-10-19T01:17:24.334Z,103023.25
2022-10-19T01:20:08.184Z,102986.13
2022-10-19T01:23:00.489Z,103001.16
2022-10-19T01:25:54.555Z,102993.75
2022-10-19T01:28:41.675Z,102995.69
2022-10-19T01:31:22.011Z,102998.66
2022-10-19T01:34:10.775Z,103000.69
2022-10-19T01:37:03.192Z,103003.53
2022-10-19T01:39:45.338Z,102990.34
2022-10-19T01:42:20.291Z,103007.97
2022-10-19T01:45:07.000Z,103000.44
2022-10-19T01:47:38.974Z,103008.91
2022-10-19T01:50:14.771Z,102994.69
2022-10-19T01:52:42.078Z,102995.53
2022-10-19T01:55:09.832Z,102980.94
2022-10-19T01:57:39.809Z,102975.22
2022-10-19T02:00:07.577Z,103006.06
2022-10-19T02:02:36.679Z,102982.22
2022-10-19T02:05:04.552Z,102981.28
2022-10-19T02:07:31.516Z,103000.50
2022-10-19T02:09:57.918Z,102986.81
2022-10-19T02:12:25.062Z,102977.59
2022-10-19T02:14:55.216Z,103005.44
2022-10-19T02:17:25.385Z,102979.69
2022-10-19T02:19:53.337Z,102962.72
2022-10-19T02:22:19.771Z,102982.09
2022-10-19T02:24:46.139Z,102975.53
2022-10-19T02:27:12.606Z,102966.06
2022-10-19T02:29:39.548Z,103002.25
2022-10-19T02:32:06.587Z,102993.03
2022-10-19T02:34:33.166Z,102970.94
2022-10-19T02:36:59.553Z,102974.34
2022-10-19T02:39:25.934Z,102984.06
2022-10-19T02:42:00.476Z,102987.53
2022-10-19T02:44:31.649Z,102987.91
2022-10-19T02:47:03.391Z,102966.94
2022-10-19T02:49:30.612Z,102973.28
2022-10-19T02:52:15.151Z,102977.59
2022-10-19T02:54:43.364Z,102962.47
2022-10-19T02:57:21.372Z,102962.78
2022-10-19T02:59:47.986Z,102977.19
2022-10-19T03:02:15.625Z,102968.97
2022-10-19T03:04:42.754Z,102977.78
2022-10-19T03:07:10.535Z,102974.63
2022-10-19T03:09:36.932Z,102970.72
2022-10-19T03:12:03.593Z,102961.81
2022-10-19T03:14:29.952Z,102957.38
2022-10-19T03:16:56.325Z,102967.94
2022-10-19T03:19:22.839Z,102951.66
2022-10-19T03:21:49.224Z,102961.81
2022-10-19T03:24:15.699Z,102950.66
2022-10-19T03:26:42.088Z,102955.91
2022-10-19T03:29:08.640Z,102939.34
2022-10-19T03:31:35.317Z,102948.56
2022-10-19T03:34:02.075Z,102938.97
2022-10-19T03:36:30.810Z,102963.50
2022-10-19T03:38:59.515Z,102958.50
2022-10-19T03:41:28.122Z,102952.69
2022-10-19T03:43:54.702Z,102950.91
2022-10-19T03:46:21.443Z,102929.16
2022-10-19T03:48:48.309Z,102943.75
2022-10-19T03:51:25.910Z,102948.09
2022-10-19T03:53:53.898Z,102930.72
2022-10-19T03:56:23.029Z,102961.72
2022-10-19T03:58:50.104Z,102947.00
2022-10-19T04:01:22.336Z,102962.47
2022-10-19T04:03:56.815Z,102935.38
2022-10-19T04:06:28.768Z,102953.25
2022-10-19T04:08:55.169Z,102941.63
2022-10-19T04:11:24.480Z,102952.00
2022-10-19T04:13:52.065Z,102927.47
2022-10-19T04:16:19.408Z,102929.06
2022-10-19T04:18:46.390Z,102916.34
2022-10-19T04:21:29.782Z,102963.56
2022-10-19T04:24:01.988Z,102965.22
2022-10-19T04:26:28.568Z,102962.06
2022-10-19T04:28:58.200Z,102955.31
2022-10-19T04:31:24.856Z,102959.41
2022-10-19T04:33:51.221Z,102937.78
2022-10-19T04:36:17.586Z,102945.94
2022-10-19T04:38:43.951Z,102947.50
2022-10-19T04:41:15.912Z,102959.34
2022-10-19T04:43:42.406Z,102932.31
2022-10-19T04:46:11.309Z,102960.31
2022-10-19T04:48:38.785Z,102934.63
2022-10-19T04:51:05.881Z,102954.81
2022-10-19T04:53:33.111Z,102956.81
2022-10-19T04:55:59.608Z,102947.72
2022-10-19T04:58:27.243Z,102960.22
2022-10-19T05:00:53.768Z,102948.84
2022-10-19T05:03:20.253Z,102943.50
2022-10-19T05:05:46.610Z,102964.63
2022-10-19T05:08:13.036Z,102949.25
2022-10-19T05:10:41.213Z,102942.38
2022-10-19T05:13:09.364Z,102957.22
2022-10-19T05:15:35.828Z,102927.13
2022-10-19T05:18:02.248Z,102931.72
2022-10-19T05:20:28.690Z,102935.09
2022-10-19T05:22:55.169Z,102926.56
2022-10-19T05:25:21.562Z,102942.69
2022-10-19T05:27:52.486Z,102947.84
2022-10-19T05:30:21.789Z,102922.22
2022-10-19T05:32:48.771Z,102925.41
2022-10-19T05:35:17.538Z,102917.56
2022-10-19T05:37:46.456Z,102940.09
2022-10-19T05:40:12.825Z,102934.69
2022-10-19T05:42:39.428Z,102929.97
2022-10-19T05:45:06.236Z,102913.09
2022-10-19T05:47:34.249Z,102934.56
2022-10-19T05:50:00.786Z,102929.63
2022-10-19T05:52:27.754Z,102936.72
2022-10-19T05:54:54.132Z,102942.84
2022-10-19T05:57:20.566Z,102936.34
2022-10-19T05:59:47.000Z,102934.09
2022-10-19T06:02:14.072Z,102929.63
2022-10-19T06:04:40.483Z,102922.31
2022-10-19T06:07:06.997Z,102935.25
2022-10-19T06:09:36.152Z,102917.47
2022-10-19T06:12:03.671Z,102937.19
2022-10-19T06:14:30.300Z,102923.47
2022-10-19T06:16:56.834Z,102919.44
2022-10-19T06:19:23.230Z,102922.16
2022-10-19T06:21:49.632Z,102918.31
2022-10-19T06:24:16.036Z,102934.38
2022-10-19T06:26:42.633Z,102944.66
2022-10-19T06:29:09.887Z,102936.94
2022-10-19T06:31:36.614Z,102936.28
2022-10-19T06:34:03.416Z,102944.19
2022-10-19T06:36:30.901Z,102941.69
2022-10-19T06:38:57.345Z,102940.94
2022-10-19T06:41:24.012Z,102950.38
2022-10-19T06:43:51.876Z,102932.91
2022-10-19T06:46:23.280Z,102933.13
2022-10-19T06:48:57.254Z,102930.94
2022-10-19T06:51:25.474Z,102938.19
2022-10-19T06:53:56.668Z,102960.16
2022-10-19T06:56:27.000Z,102927.00
2022-10-19T06:58:54.499Z,102929.97
2022-10-19T07:01:21.578Z,102925.56
2022-10-19T07:03:48.168Z,102925.16
2022-10-19T07:06:14.682Z,102925.72
2022-10-19T07:08:42.249Z,102919.16
2022-10-19T07:11:12.972Z,102928.97
2022-10-19T07:13:39.471Z,102925.56
2022-10-19T07:16:08.355Z,102909.72
2022-10-19T07:18:35.902Z,102910.72
2022-10-19T07:21:04.857Z,102922.72
2022-10-19T07:23:32.542Z,102913.44
2022-10-19T07:26:04.940Z,102906.56
2022-10-19T07:28:33.400Z,102934.69
2022-10-19T07:31:05.084Z,102915.72
2022-10-19T07:33:31.481Z,102909.84
2022-10-19T07:36:07.296Z,102917.69
2022-10-19T07:38:34.468Z,102922.47
2022-10-19T07:41:08.694Z,102926.34
2022-10-19T07:43:35.672Z,102916.09
2022-10-19T07:46:07.078Z,102928.63
2022-10-19T07:48:34.352Z,102936.25
2022-10-19T07:51:02.264Z,102922.44
2022-10-19T07:53:28.800Z,102907.09
2022-10-19T07:55:55.421Z,102919.44
2022-10-19T07:58:22.012Z,102921.94
2022-10-19T08:00:48.441Z,102927.53
2022-10-19T08:06:06.835Z,102930.84
2022-10-19T08:08:33.956Z,102911.19
2022-10-19T08:11:18.271Z,102937.00
2022-10-19T08:13:44.776Z,102920.66
2022-10-19T08:16:39.314Z,102923.25
2022-10-19T08:19:14.061Z,102918.28
2022-10-19T08:21:44.015Z,102933.53
2022-10-19T08:24:10.661Z,102934.44
2022-10-19T08:26:38.911Z,102910.22
2022-10-19T08:29:12.648Z,102930.72
2022-10-19T08:31:39.193Z,102931.78
2022-10-19T08:34:06.140Z,102929.50
2022-10-19T08:36:32.692Z,102909.69
2022-10-19T08:38:59.138Z,102923.75
2022-10-19T08:41:41.150Z,102904.94
2022-10-19T08:44:31.738Z,102915.28
2022-10-19T08:46:58.064Z,102922.28
2022-10-19T08:49:26.149Z,102909.03
2022-10-19T08:52:08.539Z,102884.78
2022-10-19T08:54:48.816Z,102892.16
2022-10-19T08:57:18.155Z,102896.22
2022-10-19T09:00:06.812Z,102899.19
2022-10-19T09:03:04.367Z,102890.94
2022-10-19T09:06:14.902Z,102883.31
2022-10-19T09:08:41.439Z,102861.97
2022-10-19T09:11:10.621Z,102884.13
2022-10-19T09:14:04.365Z,102874.59
2022-10-19T09:16:31.525Z,102861.63
2022-10-19T09:18:57.931Z,102863.31
2022-10-19T09:21:45.930Z,102870.09
2022-10-19T09:24:35.185Z,102872.75
2022-10-19T09:27:02.404Z,102878.00
2022-10-19T09:29:39.130Z,102877.00
2022-10-19T09:32:12.408Z,102859.63
2022-10-19T09:34:44.500Z,102881.81
2022-10-19T09:37:18.889Z,102871.44
2022-10-19T09:39:54.041Z,102836.16
2022-10-19T09:42:30.132Z,102840.00
2022-10-19T09:44:57.252Z,102850.03
2022-10-19T09:47:34.623Z,102830.66
2022-10-19T09:50:21.180Z,102831.59
2022-10-19T09:52:58.635Z,102823.38
2022-10-19T09:55:34.919Z,102825.69
2022-10-19T09:58:05.007Z,102832.97
2022-10-19T10:00:39.702Z,102839.53
2022-10-19T10:03:07.590Z,102842.03
2022-10-19T10:05:39.186Z,102816.09
2022-10-19T10:08:15.297Z,102833.53
2022-10-19T10:10:49.096Z,102825.84
2022-10-19T10:13:27.506Z,102824.72
2022-10-19T10:16:00.402Z,102826.38
2022-10-19T10:18:28.084Z,102843.00
2022-10-19T10:21:01.159Z,102813.19
2022-10-19T10:23:32.042Z,102821.19
2022-10-19T10:26:00.092Z,102824.72
2022-10-19T10:28:28.454Z,102835.75
2022-10-19T10:31:02.083Z,102829.28
2022-10-19T10:33:45.878Z,102826.53
2022-10-19T10:36:12.623Z,102827.09
2022-10-19T10:38:46.051Z,102841.50
2022-10-19T10:41:14.760Z,102827.66
2022-10-19T10:44:06.725Z,102814.84
2022-10-19T10:46:35.859Z,102802.63
2022-10-19T10:49:04.724Z,102796.59
2022-10-19T10:51:34.003Z,102804.16
2022-10-19T10:54:16.841Z,102786.44
2022-10-19T10:56:44.346Z,102782.31
2022-10-19T10:59:39.446Z,102797.53
2022-10-19T11:02:17.163Z,102787.28
2022-10-19T11:04:59.116Z,102767.63
2022-10-19T11:07:26.884Z,102763.22
2022-10-19T11:10:09.973Z,102766.78
2022-10-19T11:12:40.568Z,102759.66
2022-10-19T11:15:20.915Z,102760.47
2022-10-19T11:18:00.954Z,102771.84
2022-10-19T11:20:30.281Z,102737.81
2022-10-19T11:23:07.543Z,102747.31
2022-10-19T11:25:42.977Z,102752.63
2022-10-19T11:28:33.261Z,102728.06
2022-10-19T11:31:24.698Z,102718.16
2022-10-19T11:34:25.244Z,102729.56
2022-10-19T11:36:58.255Z,102716.34
2022-10-19T11:40:23.129Z,102687.72
2022-10-19T11:43:22.395Z,102709.47
2022-10-19T11:46:00.485Z,102710.84
2022-10-19T11:49:01.108Z,102695.63
2022-10-19T11:51:33.518Z,102698.69
2022-10-19T11:54:29.354Z,102657.63
2022-10-19T11:57:05.512Z,102662.56
2022-10-19T11:59:43.380Z,102652.81
2022-10-19T12:02:21.963Z,102672.56
2022-10-19T12:04:55.499Z,102662.94
2022-10-19T12:07:43.706Z,102671.56
2022-10-19T12:10:28.238Z,102663.72
2022-10-19T12:12:58.898Z,102648.75
2022-10-19T12:15:28.485Z,102646.53
2022-10-19T12:17:57.459Z,102639.25
2022-10-19T12:20:38.983Z,102632.13
2022-10-19T12:23:28.046Z,102613.34
2022-10-19T12:25:56.601Z,102600.28
2022-10-19T12:28:32.745Z,102611.66
2022-10-19T12:31:01.186Z,102601.22
2022-10-19T12:33:42.369Z,102599.28
2022-10-19T12:36:19.639Z,102588.72
2022-10-19T12:39:11.667Z,102599.28
2022-10-19T12:42:03.638Z,102584.31
2022-10-19T12:44:57.823Z,102606.03
2022-10-19T12:47:26.022Z,102597.31
2022-10-19T12:49:56.714Z,102582.44
2022-10-19T12:52:48.057Z,102578.88
2022-10-19T12:55:34.616Z,102569.84
2022-10-19T12:58:19.897Z,102567.09
2022-10-19T13:00:58.780Z,102555.25
2022-10-19T13:03:30.081Z,102536.31
2022-10-19T13:05:58.283Z,102538.78
2022-10-19T13:08:34.039Z,102544.88
2022-10-19T13:11:19.734Z,102533.81
2022-10-19T13:13:55.101Z,102515.88
2022-10-19T13:16:33.657Z,102532.47
2022-10-19T13:19:00.213Z,102529.44
2022-10-19T13:21:51.305Z,102531.91
2022-10-19T13:24:23.813Z,102525.78
2022-10-19T13:27:02.373Z,102521.50
2022-10-19T13:29:41.031Z,102518.22
2022-10-19T13:32:45.130Z,102508.38
2022-10-19T13:35:24.817Z,102500.09
2022-10-19T13:38:09.481Z,102502.13
2022-10-19T13:40:56.220Z,102501.75
2022-10-19T13:43:24.783Z,102489.72
2022-10-19T13:46:02.755Z,102496.81
2022-10-19T13:48:38.015Z,102486.13
2022-10-19T13:51:38.117Z,102508.00
2022-10-19T13:54:10.417Z,102505.03
2022-10-19T13:56:55.541Z,102493.47
2022-10-19T13:59:43.269Z,102500.31
2022-10-19T14:02:34.365Z,102503.72
2022-10-19T14:05:25.841Z,102490.22
2022-10-19T14:08:03.297Z,102494.41
2022-10-19T14:10:38.065Z,102479.34
2022-10-19T14:13:14.229Z,102489.06
2022-10-19T14:15:50.735Z,102497.66
2022-10-19T14:18:34.436Z,102481.97
2022-10-19T14:21:06.401Z,102488.53
2022-10-19T14:23:34.919Z,102495.84
2022-10-19T14:26:07.043Z,102489.41
2022-10-19T14:28:33.724Z,102485.44
2022-10-19T14:31:04.974Z,102496.84
2022-10-19T14:33:36.657Z,102487.84
2022-10-19T14:36:03.532Z,102487.28
2022-10-19T14:38:36.685Z,102482.19
2022-10-19T14:41:05.337Z,102469.38
2022-10-19T14:43:34.230Z,102482.19
2022-10-19T14:46:06.771Z,102480.97
2022-10-19T14:48:34.829Z,102468.88
2022-10-19T14:51:02.418Z,102465.28
2022-10-19T14:54:13.447Z,102472.44
2022-10-19T14:56:50.617Z,102457.56
2022-10-19T14:59:24.581Z,102467.00
2022-10-19T15:01:53.110Z,102459.41
2022-10-19T15:04:29.928Z,102441.31
2022-10-19T15:06:57.070Z,102443.16
2022-10-19T15:09:37.798Z,102436.03
2022-10-19T15:12:16.481Z,102428.88
2022-10-19T15:14:43.285Z,102436.69
2022-10-19T15:17:32.632Z,102429.19
2022-10-19T15:20:01.133Z,102435.69
2022-10-19T15:22:31.027Z,102437.53
2022-10-19T15:25:06.520Z,102429.59
2022-10-19T15:27:36.745Z,102413.03
2022-10-19T15:30:18.399Z,102422.03
2022-10-19T15:33:09.637Z,102417.63
2022-10-19T15:35:38.385Z,102401.78
2022-10-19T15:38:13.669Z,102405.34
2022-10-19T15:40:42.309Z,102412.72
2022-10-19T15:43:30.546Z,102402.31
2022-10-19T15:45:59.841Z,102404.44
2022-10-19T15:48:39.922Z,102389.31
2022-10-19T15:51:26.295Z,102410.28
2022-10-19T15:53:53.792Z,102406.19
2022-10-19T15:56:21.353Z,102396.41
2022-10-19T15:58:54.986Z,102385.88
2022-10-19T16:01:26.350Z,102385.34
2022-10-19T16:03:53.644Z,102372.47
2022-10-19T16:06:22.409Z,102377.16
2022-10-19T16:08:51.048Z,102375.44
2022-10-19T16:11:19.492Z,102362.38
2022-10-19T16:13:45.976Z,102356.56
2022-10-19T16:16:18.313Z,102366.13
2022-10-19T16:18:44.779Z,102332.69
2022-10-19T16:21:11.214Z,102340.53
2022-10-19T16:23:41.826Z,102338.59
2022-10-19T16:26:08.718Z,102342.88
2022-10-19T16:28:35.964Z,102350.63
2022-10-19T16:31:02.642Z,102355.31
2022-10-19T16:33:29.041Z,102334.63
2022-10-19T16:35:55.468Z,102352.94
2022-10-19T16:38:21.921Z,102345.69
2022-10-19T16:40:48.502Z,102347.09
2022-10-19T16:43:14.884Z,102357.63
2022-10-19T16:45:44.358Z,102334.03
2022-10-19T16:48:13.898Z,102343.78
2022-10-19T16:50:40.440Z,102351.59
2022-10-19T16:53:12.170Z,102345.63
2022-10-19T16:55:42.454Z,102341.41
2022-10-19T16:58:08.860Z,102324.72
2022-10-19T17:00:35.922Z,102327.63
2022-10-19T17:03:02.352Z,102319.00
2022-10-19T17:05:28.926Z,102313.94
2022-10-19T17:07:55.307Z,102318.47
2022-10-19T17:10:21.751Z,102324.06
2022-10-19T17:15:44.615Z,102308.06
2022-10-19T17:18:01.046Z,102310.81
2022-10-19T17:20:27.415Z,102319.16
2022-10-19T17:22:53.797Z,102323.53
2022-10-19T17:25:20.174Z,102319.69
2022-10-19T17:27:50.676Z,102320.50
2022-10-19T17:30:17.299Z,102308.44
2022-10-19T17:32:43.757Z,102290.34
2022-10-19T17:35:10.312Z,102311.41
2022-10-19T17:37:37.105Z,102313.06
2022-10-19T17:40:04.151Z,102311.97
2022-10-19T17:42:31.050Z,102276.06
2022-10-19T17:44:57.681Z,102305.22
2022-10-19T17:47:26.482Z,102291.94
2022-10-19T17:49:52.925Z,102286.28
2022-10-19T17:52:19.349Z,102308.50
2022-10-19T17:54:54.554Z,102287.69
2022-10-19T17:57:32.576Z,102292.47
2022-10-19T17:59:59.183Z,102283.13
2022-10-19T18:02:25.694Z,102280.03
2022-10-19T18:04:52.113Z,102296.69
2022-10-19T18:07:18.733Z,102302.97
2022-10-19T18:09:45.215Z,102283.81
2022-10-19T18:12:13.346Z,102302.28
2022-10-19T18:14:40.216Z,102287.50
2022-10-19T18:17:06.629Z,102308.84
2022-10-19T18:19:33.029Z,102302.00
2022-10-19T18:21:59.409Z,102325.13
2022-10-19T18:24:26.388Z,102324.13
2022-10-19T18:26:52.815Z,102318.78
2022-10-19T18:29:24.285Z,102317.53
2022-10-19T18:31:52.206Z,102301.78
2022-10-19T18:34:21.223Z,102310.22
2022-10-19T18:36:48.354Z,102302.94
2022-10-19T18:39:15.000Z,102306.84
2022-10-19T18:41:41.779Z,102306.75
2022-10-19T18:44:08.812Z,102303.91
2022-10-19T18:46:36.639Z,102298.69
2022-10-19T18:49:05.222Z,102292.16
2022-10-19T18:51:32.076Z,102282.44
2022-10-19T18:54:01.125Z,102253.66
2022-10-19T18:56:29.263Z,102247.34
2022-10-19T18:58:56.627Z,102267.66
2022-10-19T19:01:28.110Z,102253.47
2022-10-19T19:03:56.694Z,102251.59
2022-10-19T19:06:29.613Z,102240.00
2022-10-19T19:09:00.388Z,102247.66
2022-10-19T19:11:34.309Z,102240.13
2022-10-19T19:14:06.551Z,102258.25
2022-10-19T19:16:34.823Z,102252.53
2022-10-19T19:19:01.224Z,102249.44
2022-10-19T19:21:29.427Z,102247.50
2022-10-19T19:23:58.721Z,102254.06
2022-10-19T19:26:27.713Z,102217.69
2022-10-19T19:28:54.221Z,102217.38
2022-10-19T19:31:20.650Z,102210.41
2022-10-19T19:33:47.659Z,102218.69
2022-10-19T19:36:15.869Z,102210.72
2022-10-19T19:38:42.838Z,102202.94
2022-10-19T19:41:12.035Z,102174.50
2022-10-19T19:43:39.172Z,102168.59
2022-10-19T19:46:09.395Z,102181.75
2022-10-19T19:48:39.373Z,102188.31
2022-10-19T19:51:08.764Z,102170.75
2022-10-19T19:53:37.969Z,102157.84
2022-10-19T19:56:06.283Z,102163.72
2022-10-19T19:58:32.675Z,102137.75
2022-10-19T20:00:59.064Z,102154.13
2022-10-19T20:03:25.477Z,102154.00
2022-10-19T20:05:51.895Z,102154.69
2022-10-19T20:08:18.291Z,102153.47
2022-10-19T20:10:44.731Z,102149.88
2022-10-19T20:13:11.183Z,102123.31
2022-10-19T20:15:38.652Z,102120.34
2022-10-19T20:18:05.609Z,102099.84
2022-10-19T20:20:32.134Z,102101.56
2022-10-19T20:22:58.636Z,102120.47
2022-10-19T20:25:25.074Z,102113.19
2022-10-19T20:27:52.518Z,102121.81
2022-10-19T20:30:18.983Z,102117.00
2022-10-19T20:32:45.374Z,102130.16
2022-10-19T20:35:11.792Z,102126.16
2022-10-19T20:37:38.278Z,102124.69
2022-10-19T20:40:08.593Z,102121.94
2022-10-19T20:42:35.638Z,102111.88
2022-10-19T20:45:02.269Z,102091.78
2022-10-19T20:47:28.747Z,102096.91
2022-10-19T20:49:55.159Z,102086.34
2022-10-19T20:52:21.672Z,102066.31
2022-10-19T20:54:48.628Z,102091.53
2022-10-19T20:57:15.274Z,102090.53
2022-10-19T20:59:43.701Z,102087.38
2022-10-19T21:02:10.689Z,102070.13
2022-10-19T21:04:37.229Z,102072.88
2022-10-19T21:07:04.895Z,102076.81
2022-10-19T21:09:31.462Z,102073.28
2022-10-19T21:11:58.102Z,102068.59
2022-10-19T21:14:28.388Z,102084.22
2022-10-19T21:16:59.370Z,102063.69
2022-10-19T21:19:28.281Z,102076.81
2022-10-19T21:21:57.717Z,102084.22
2022-10-19T21:24:27.312Z,102072.44
2022-10-19T21:26:54.157Z,102075.31
2022-10-19T21:29:20.727Z,102074.44
2022-10-19T21:31:49.294Z,102080.59
2022-10-19T21:34:27.577Z,102073.94
2022-10-19T21:36:54.188Z,102065.41
2022-10-19T21:39:20.995Z,102065.69
2022-10-19T21:41:47.849Z,102075.19
2022-10-19T21:44:15.079Z,102055.56
2022-10-19T21:46:43.477Z,102050.06
2022-10-19T21:49:12.943Z,102062.56
2022-10-19T21:51:44.981Z,102065.94
2022-10-19T21:54:13.816Z,102073.00
2022-10-19T21:56:40.243Z,102047.59
2022-10-19T21:59:06.764Z,102027.50
2022-10-19T22:01:37.319Z,102046.41
2022-10-19T22:04:08.395Z,102059.97
2022-10-19T22:06:36.182Z,102052.66
2022-10-19T22:09:05.135Z,102035.09
2022-10-19T22:11:31.653Z,102014.06
2022-10-19T22:13:59.902Z,102010.78
2022-10-19T22:16:28.174Z,102029.06
2022-10-19T22:18:55.302Z,102015.50
2022-10-19T22:21:25.361Z,102006.09
2022-10-19T22:23:56.115Z,102017.22
2022-10-19T22:26:27.777Z,102005.03
2022-10-19T22:28:58.682Z,102021.81
2022-10-19T22:31:26.221Z,101995.31
2022-10-19T22:33:52.659Z,102013.38
2022-10-19T22:36:19.171Z,101990.13
2022-10-19T22:38:45.788Z,101992.19
2022-10-19T22:42:05.416Z,102000.25
2022-10-19T22:44:31.836Z,101992.03
2022-10-19T22:46:58.727Z,101991.44
2022-10-19T22:49:25.100Z,101984.50
2022-10-19T22:51:51.550Z,101975.06
2022-10-19T22:54:17.909Z,101974.66
2022-10-19T22:56:44.420Z,101968.91
2022-10-19T22:59:13.077Z,101956.81
2022-10-19T23:01:39.479Z,101957.06
2022-10-19T23:04:05.901Z,101948.03
2022-10-19T23:06:32.431Z,101956.09
2022-10-19T23:08:58.841Z,101946.25
2022-10-19T23:11:25.284Z,101947.06
2022-10-19T23:13:51.960Z,101931.13
2022-10-19T23:16:18.484Z,101943.44
2022-10-19T23:18:45.101Z,101943.69
2022-10-19T23:21:12.563Z,101943.22
2022-10-19T23:23:39.275Z,101944.28
2022-10-19T23:26:12.154Z,101927.63
2022-10-19T23:28:40.202Z,101921.50
2022-10-19T23:31:11.151Z,101934.75
2022-10-19T23:33:37.657Z,101923.03
2022-10-19T23:36:10.134Z,101927.75
2022-10-19T23:38:36.742Z,101911.41
2022-10-19T23:41:03.612Z,101896.03
2022-10-19T23:43:30.128Z,101898.22
2022-10-19T23:45:56.558Z,101894.75
2022-10-19T23:48:22.931Z,101890.63
2022-10-19T23:51:00.012Z,101915.84
2022-10-19T23:53:27.531Z,101910.78
2022-10-19T23:56:05.963Z,101901.38
2022-10-19T23:58:32.932Z,101897.41
